createdAt,value
2023-02-18T00:01:39.436Z,10.73
2023-02-18T00:04:07.344Z,10.13
2023-02-18T00:06:37.188Z,12.43
2023-02-18T00:09:06.437Z,10.52
2023-02-18T00:11:37.219Z,12.35
2023-02-18T00:14:08.691Z,14.18
2023-02-18T00:16:36.521Z,16.50
2023-02-18T00:19:07.747Z,11.30
2023-02-18T00:21:37.173Z,13.35
2023-02-18T00:24:06.204Z,14.80
2023-02-18T00:26:34.863Z,14.82
2023-02-18T00:29:03.507Z,14.30
2023-02-18T00:31:35.600Z,11.73
2023-02-18T00:34:04.906Z,12.48
2023-02-18T00:36:34.451Z,15.52
2023-02-18T00:39:04.540Z,12.93
2023-02-18T00:41:34.756Z,11.32
2023-02-18T00:44:03.228Z,11.98
2023-02-18T00:46:32.495Z,13.65
2023-02-18T00:49:02.088Z,16.23
2023-02-18T00:51:30.042Z,14.75
2023-02-18T00:53:58.992Z,15.05
2023-02-18T00:56:27.003Z,12.43
2023-02-18T00:58:55.010Z,12.13
2023-02-18T01:01:22.884Z,14.82
2023-02-18T01:03:52.188Z,12.60
2023-02-18T01:06:20.030Z,12.40
2023-02-18T01:08:49.594Z,12.60
2023-02-18T01:11:17.724Z,12.45
2023-02-18T01:13:47.085Z,10.20
2023-02-18T01:16:14.981Z,11.98
2023-02-18T01:18:42.842Z,11.63
2023-02-18T01:21:12.243Z,12.57
2023-02-18T01:23:41.311Z,10.63
2023-02-18T01:26:10.745Z,15.18
2023-02-18T01:28:38.900Z,9.20
2023-02-18T01:31:09.049Z,10.43
2023-02-18T01:33:37.735Z,9.98
2023-02-18T01:36:07.185Z,11.82
2023-02-18T01:38:38.067Z,17.25
2023-02-18T01:41:06.734Z,10.38
2023-02-18T01:43:35.037Z,10.63
2023-02-18T01:46:14.951Z,12.95
2023-02-18T01:48:51.202Z,10.98
2023-02-18T01:51:22.770Z,11.48
2023-02-18T01:53:56.655Z,10.30
2023-02-18T01:56:28.980Z,12.48
2023-02-18T01:58:59.450Z,14.20
2023-02-18T02:01:28.335Z,13.30
2023-02-18T02:03:56.439Z,13.70
2023-02-18T02:06:25.781Z,8.52
2023-02-18T02:08:58.698Z,12.25
2023-02-18T02:11:42.484Z,11.27
2023-02-18T02:14:23.316Z,9.98
2023-02-18T02:17:03.938Z,11.75
2023-02-18T02:20:14.926Z,11.10
2023-02-18T02:23:11.808Z,13.30
2023-02-18T02:26:07.651Z,12.77
2023-02-18T02:29:11.049Z,8.57
2023-02-18T02:32:15.117Z,10.05
2023-02-18T02:34:53.701Z,10.00
2023-02-18T02:37:28.555Z,10.27
2023-02-18T02:40:06.026Z,9.07
2023-02-18T02:42:47.795Z,9.88
2023-02-18T02:45:25.149Z,8.35
2023-02-18T02:48:03.798Z,11.23
2023-02-18T02:50:40.853Z,11.75
2023-02-18T02:53:16.074Z,12.48
2023-02-18T02:55:43.898Z,10.32
2023-02-18T02:58:16.325Z,8.57
2023-02-18T03:00:59.143Z,10.57
2023-02-18T03:03:54.571Z,10.20
2023-02-18T03:06:45.532Z,10.13
2023-02-18T03:09:18.555Z,15.23
2023-02-18T03:11:57.322Z,9.27
2023-02-18T03:14:30.883Z,8.35
2023-02-18T03:17:03.907Z,10.55
2023-02-18T03:19:36.111Z,9.52
2023-02-18T03:22:10.196Z,8.68
2023-02-18T03:27:14.838Z,13.90
2023-02-18T03:29:45.962Z,9.32
2023-02-18T03:32:18.309Z,8.02
2023-02-18T03:34:51.116Z,11.23
2023-02-18T03:37:21.800Z,13.02
2023-02-18T03:39:56.408Z,10.65
2023-02-18T03:42:27.527Z,11.23
2023-02-18T03:44:55.568Z,9.30
2023-02-18T03:47:24.949Z,8.10
2023-02-18T03:49:52.776Z,9.43
2023-02-18T03:52:22.139Z,12.10
2023-02-18T03:54:51.794Z,11.75
2023-02-18T03:57:19.678Z,11.27
2023-02-18T03:59:47.570Z,8.20
2023-02-18T04:02:15.371Z,8.45
2023-02-18T04:04:43.221Z,9.10
2023-02-18T04:07:11.068Z,10.30
2023-02-18T04:09:40.305Z,10.15
2023-02-18T04:12:08.596Z,11.98
2023-02-18T04:14:36.392Z,9.70
2023-02-18T04:17:04.238Z,11.70
2023-02-18T04:19:32.099Z,11.05
2023-02-18T04:21:59.902Z,9.30
2023-02-18T04:24:27.877Z,9.70
2023-02-18T04:26:57.056Z,10.23
2023-02-18T04:29:24.848Z,10.00
2023-02-18T04:31:52.779Z,9.80
2023-02-18T04:34:20.594Z,13.07
2023-02-18T04:36:48.470Z,12.25
2023-02-18T04:39:16.289Z,12.15
2023-02-18T04:41:44.139Z,16.65
2023-02-18T04:44:13.345Z,11.35
2023-02-18T04:46:41.216Z,12.73
2023-02-18T04:49:09.075Z,13.32
2023-02-18T04:51:37.647Z,12.52
2023-02-18T04:54:05.728Z,11.77
2023-02-18T04:56:33.559Z,12.68
2023-02-18T04:59:01.388Z,12.55
2023-02-18T05:01:30.631Z,11.25
2023-02-18T05:03:58.510Z,12.85
2023-02-18T05:06:26.386Z,12.57
2023-02-18T05:08:54.242Z,10.90
2023-02-18T05:11:22.243Z,15.23
2023-02-18T05:13:50.088Z,12.20
2023-02-18T05:16:17.977Z,15.93
2023-02-18T05:18:47.104Z,18.85
2023-02-18T05:21:14.984Z,14.20
2023-02-18T05:23:42.792Z,16.95
2023-02-18T05:26:10.902Z,13.40
2023-02-18T05:28:38.942Z,14.35
2023-02-18T05:31:07.071Z,14.05
2023-02-18T05:33:34.976Z,14.43
2023-02-18T05:36:04.249Z,20.55
2023-02-18T05:38:32.094Z,15.75
2023-02-18T05:40:59.886Z,21.55
2023-02-18T05:43:27.686Z,11.25
2023-02-18T05:45:55.557Z,14.05
2023-02-18T05:48:23.384Z,11.93
2023-02-18T05:50:53.941Z,11.45
2023-02-18T05:53:23.083Z,10.80
2023-02-18T05:55:50.902Z,9.15
2023-02-18T05:58:18.728Z,9.73
2023-02-18T06:00:46.492Z,10.40
2023-02-18T06:03:14.372Z,7.68
2023-02-18T06:05:42.169Z,5.75
2023-02-18T06:08:10.024Z,14.32
2023-02-18T06:10:41.499Z,8.55
2023-02-18T06:13:09.317Z,4.38
2023-02-18T06:15:37.118Z,3.58
2023-02-18T06:18:05.289Z,3.15
2023-02-18T06:20:33.114Z,60.88
2023-02-18T06:23:01.023Z,82.47
2023-02-18T06:25:28.888Z,42.25
2023-02-18T06:27:58.090Z,12.88
2023-02-18T06:30:25.955Z,11.00
2023-02-18T06:32:54.930Z,13.88
2023-02-18T06:35:22.750Z,4.13
2023-02-18T06:37:50.618Z,3.83
2023-02-18T06:40:19.333Z,5.55
2023-02-18T06:42:47.206Z,2.58
2023-02-18T06:45:16.630Z,2.55
2023-02-18T06:47:44.457Z,2.58
2023-02-18T06:50:12.387Z,2.55
2023-02-18T06:52:40.234Z,3.40
2023-02-18T06:55:09.387Z,2.83
2023-02-18T06:57:37.311Z,1.80
2023-02-18T07:00:07.241Z,1.77
2023-02-18T07:02:36.400Z,2.30
2023-02-18T07:05:04.224Z,2.35
2023-02-18T07:07:32.136Z,2.30
2023-02-18T07:09:59.936Z,2.38
2023-02-18T07:12:27.883Z,1.65
2023-02-18T07:14:55.723Z,1.00
2023-02-18T07:17:23.650Z,1.33
2023-02-18T07:19:52.882Z,1.73
2023-02-18T07:22:20.759Z,1.40
2023-02-18T07:24:52.434Z,2.17
2023-02-18T07:27:20.271Z,0.88
2023-02-18T07:29:48.107Z,5.55
2023-02-18T07:32:17.843Z,1.77
2023-02-18T07:34:45.677Z,2.05
2023-02-18T07:37:14.842Z,0.98
2023-02-18T07:39:43.324Z,0.95
2023-02-18T07:42:11.814Z,0.65
2023-02-18T07:44:40.252Z,0.47
2023-02-18T07:47:09.452Z,0.30
2023-02-18T07:49:37.539Z,1.60
2023-02-18T07:52:05.751Z,1.73
2023-02-18T07:54:35.065Z,0.68
2023-02-18T07:57:02.920Z,0.50
2023-02-18T07:59:30.840Z,0.65
2023-02-18T08:01:58.757Z,0.52
2023-02-18T08:04:26.612Z,1.30
2023-02-18T08:06:54.461Z,0.50
2023-02-18T08:09:22.411Z,0.68
2023-02-18T08:11:51.700Z,0.65
2023-02-18T08:14:19.619Z,0.22
2023-02-18T08:16:47.452Z,0.43
2023-02-18T08:19:15.312Z,0.40
2023-02-18T08:21:43.216Z,1.20
2023-02-18T08:24:11.040Z,1.27
2023-02-18T08:26:42.481Z,0.30
2023-02-18T08:29:15.264Z,0.35
2023-02-18T08:31:44.773Z,0.35
2023-02-18T08:34:12.748Z,0.73
2023-02-18T08:36:40.584Z,0.93
2023-02-18T08:39:08.393Z,0.73
2023-02-18T08:41:36.217Z,0.60
2023-02-18T08:44:04.141Z,0.50
2023-02-18T08:46:35.714Z,0.20
2023-02-18T08:49:05.720Z,0.52
2023-02-18T08:51:33.773Z,0.30
2023-02-18T08:54:01.618Z,0.82
2023-02-18T08:56:29.460Z,0.43
2023-02-18T08:58:57.348Z,2.05
2023-02-18T09:01:25.256Z,0.68
2023-02-18T09:03:54.593Z,0.28
2023-02-18T09:06:22.437Z,0.30
2023-02-18T09:08:50.345Z,0.20
2023-02-18T09:11:18.400Z,0.77
2023-02-18T09:13:46.804Z,0.35
2023-02-18T09:16:18.214Z,0.95
2023-02-18T09:18:47.374Z,0.47
2023-02-18T09:21:20.655Z,1.63
2023-02-18T09:23:48.615Z,0.77
2023-02-18T09:26:18.912Z,0.30
2023-02-18T09:28:46.793Z,0.80
2023-02-18T09:31:17.185Z,0.60
2023-02-18T09:33:47.324Z,0.40
2023-02-18T09:36:16.508Z,0.80
2023-02-18T09:38:44.374Z,0.98
2023-02-18T09:41:20.118Z,1.40
2023-02-18T09:43:51.648Z,0.15
2023-02-18T09:46:23.917Z,0.63
2023-02-18T09:48:53.689Z,0.43
2023-02-18T09:51:23.160Z,0.20
2023-02-18T09:53:51.076Z,0.10
2023-02-18T09:56:28.084Z,1.67
2023-02-18T09:58:58.372Z,0.20
2023-02-18T10:01:31.479Z,0.20
2023-02-18T10:04:02.869Z,0.30
2023-02-18T10:06:34.790Z,0.10
2023-02-18T10:09:05.920Z,1.38
2023-02-18T10:11:38.813Z,0.45
2023-02-18T10:14:11.906Z,0.10
2023-02-18T10:16:39.786Z,0.93
2023-02-18T10:19:18.040Z,0.20
2023-02-18T10:21:49.033Z,2.08
2023-02-18T10:24:26.722Z,0.28
2023-02-18T10:26:55.527Z,3.03
2023-02-18T10:29:24.936Z,0.10
2023-02-18T10:31:57.326Z,0.38
2023-02-18T10:34:38.548Z,0.38
2023-02-18T10:37:16.955Z,1.90
2023-02-18T10:39:53.560Z,0.30
2023-02-18T10:42:34.588Z,0.20
2023-02-18T10:45:13.274Z,0.85
2023-02-18T10:47:50.047Z,1.38
2023-02-18T10:50:27.759Z,2.28
2023-02-18T10:53:02.420Z,0.20
2023-02-18T10:55:40.030Z,1.20
2023-02-18T10:58:30.821Z,0.50
2023-02-18T11:00:59.308Z,0.52
2023-02-18T11:03:39.250Z,0.30
2023-02-18T11:06:16.854Z,0.20
2023-02-18T11:08:47.768Z,0.80
2023-02-18T11:11:18.656Z,2.38
2023-02-18T11:13:53.183Z,0.68
2023-02-18T11:16:24.206Z,1.23
2023-02-18T11:18:52.114Z,0.20
2023-02-18T11:21:30.358Z,2.83
2023-02-18T11:24:08.369Z,3.40
2023-02-18T11:26:39.783Z,0.20
2023-02-18T11:29:13.137Z,0.30
2023-02-18T11:31:44.588Z,0.98
2023-02-18T11:34:19.300Z,0.50
2023-02-18T11:36:48.359Z,1.05
2023-02-18T11:39:24.292Z,0.75
2023-02-18T11:41:57.690Z,1.08
2023-02-18T11:44:37.264Z,3.95
2023-02-18T11:47:07.402Z,1.23
2023-02-18T11:49:36.155Z,0.47
2023-02-18T11:52:18.565Z,0.40
2023-02-18T11:55:02.118Z,4.22
2023-02-18T11:57:30.638Z,0.25
2023-02-18T12:00:00.191Z,2.85
2023-02-18T12:02:34.414Z,0.68
2023-02-18T12:05:05.567Z,1.45
2023-02-18T12:07:43.598Z,0.77
2023-02-18T12:10:20.168Z,0.43
2023-02-18T12:12:52.608Z,0.30
2023-02-18T12:15:28.635Z,6.00
2023-02-18T12:18:10.320Z,2.42
2023-02-18T12:20:54.615Z,1.95
2023-02-18T12:23:32.533Z,3.50
2023-02-18T12:26:12.824Z,1.13
2023-02-18T12:28:51.406Z,0.40
2023-02-18T12:31:48.365Z,0.20
2023-02-18T12:34:33.106Z,7.97
2023-02-18T12:37:13.606Z,0.75
2023-02-18T12:40:05.484Z,2.72
2023-02-18T12:42:50.470Z,2.83
2023-02-18T12:45:36.465Z,1.10
2023-02-18T12:48:19.910Z,8.35
2023-02-18T12:51:00.910Z,2.90
2023-02-18T12:53:47.037Z,0.57
2023-02-18T12:56:37.409Z,2.13
2023-02-18T12:59:17.698Z,0.98
2023-02-18T13:01:55.298Z,0.47
2023-02-18T13:04:36.779Z,7.00
2023-02-18T13:07:41.120Z,0.40
2023-02-18T13:10:38.317Z,0.35
2023-02-18T13:13:12.722Z,0.70
2023-02-18T13:15:47.193Z,1.00
2023-02-18T13:18:24.048Z,0.83
2023-02-18T13:20:54.951Z,1.05
2023-02-18T13:23:25.303Z,0.43
2023-02-18T13:26:00.828Z,0.30
2023-02-18T13:28:35.470Z,1.08
2023-02-18T13:31:18.938Z,1.80
2023-02-18T13:33:54.622Z,0.22
2023-02-18T13:36:44.571Z,0.20
2023-02-18T13:39:19.889Z,0.82
2023-02-18T13:45:03.513Z,1.88
2023-02-18T13:47:39.819Z,0.77
2023-02-18T13:50:26.522Z,0.55
2023-02-18T13:53:14.110Z,0.30
2023-02-18T13:55:49.360Z,8.43
2023-02-18T14:00:51.549Z,1.25
2023-02-18T14:03:33.484Z,2.75
2023-02-18T14:06:01.440Z,2.33
2023-02-18T14:08:34.970Z,3.40
2023-02-18T14:11:38.685Z,3.05
2023-02-18T14:14:44.933Z,1.85
2023-02-18T14:17:35.736Z,5.28
2023-02-18T14:20:45.151Z,1.65
2023-02-18T14:23:28.847Z,2.92
2023-02-18T14:26:05.973Z,2.50
2023-02-18T14:28:42.397Z,1.95
2023-02-18T14:34:24.102Z,2.92
2023-02-18T14:37:03.302Z,1.15
2023-02-18T14:39:43.342Z,1.05
2023-02-18T14:42:20.828Z,0.73
2023-02-18T14:45:01.524Z,1.60
2023-02-18T14:47:43.223Z,1.05
2023-02-18T14:50:14.733Z,3.00
2023-02-18T14:52:46.483Z,1.38
2023-02-18T14:55:22.051Z,2.55
2023-02-18T14:57:53.617Z,1.73
2023-02-18T15:00:24.152Z,0.57
2023-02-18T15:02:54.880Z,0.47
2023-02-18T15:05:24.852Z,1.30
2023-02-18T15:08:02.951Z,1.48
2023-02-18T15:10:38.061Z,1.02
2023-02-18T15:13:09.349Z,0.70
2023-02-18T15:15:37.453Z,2.92
2023-02-18T15:18:06.270Z,1.15
2023-02-18T15:20:36.041Z,0.80
2023-02-18T15:23:05.387Z,2.10
2023-02-18T15:25:33.382Z,0.88
2023-02-18T15:28:01.232Z,2.78
2023-02-18T15:30:32.100Z,0.88
2023-02-18T15:33:01.692Z,5.18
2023-02-18T15:35:31.636Z,2.05
2023-02-18T15:38:01.654Z,2.72
2023-02-18T15:40:33.335Z,6.32
2023-02-18T15:43:05.141Z,1.75
2023-02-18T15:45:34.988Z,4.85
2023-02-18T15:48:03.400Z,1.65
2023-02-18T15:50:34.435Z,1.38
2023-02-18T15:53:07.904Z,3.70
2023-02-18T15:55:39.240Z,0.90
2023-02-18T15:58:13.056Z,0.80
2023-02-18T16:00:42.664Z,0.30
2023-02-18T16:03:16.709Z,1.95
2023-02-18T16:05:44.689Z,1.27
2023-02-18T16:08:16.243Z,0.45
2023-02-18T16:10:53.925Z,2.42
2023-02-18T16:13:22.356Z,1.98
2023-02-18T16:15:52.475Z,0.30
2023-02-18T16:18:27.173Z,1.38
2023-02-18T16:20:57.017Z,0.98
2023-02-18T16:23:31.902Z,1.30
2023-02-18T16:26:20.888Z,0.90
2023-02-18T16:28:51.332Z,4.68
2023-02-18T16:31:21.419Z,1.98
2023-02-18T16:33:50.546Z,0.82
2023-02-18T16:36:18.727Z,0.52
2023-02-18T16:38:46.691Z,1.33
2023-02-18T16:41:16.246Z,3.65
2023-02-18T16:43:44.442Z,2.47
2023-02-18T16:46:16.930Z,0.20
2023-02-18T16:48:46.610Z,1.88
2023-02-18T16:51:18.939Z,5.13
2023-02-18T16:53:46.755Z,1.67
2023-02-18T16:56:18.278Z,3.30
2023-02-18T16:58:46.341Z,1.63
2023-02-18T17:01:25.578Z,5.75
2023-02-18T17:03:53.798Z,0.40
2023-02-18T17:06:22.678Z,0.57
2023-02-18T17:08:51.302Z,0.43
2023-02-18T17:11:25.721Z,1.23
2023-02-18T17:13:55.129Z,0.40
2023-02-18T17:16:23.668Z,2.08
2023-02-18T17:18:51.468Z,2.35
2023-02-18T17:21:21.458Z,1.30
2023-02-18T17:23:49.800Z,0.68
2023-02-18T17:26:19.793Z,2.63
2023-02-18T17:28:48.910Z,0.70
2023-02-18T17:31:19.648Z,0.90
2023-02-18T17:33:48.040Z,0.50
2023-02-18T17:36:16.405Z,0.43
2023-02-18T17:38:44.203Z,0.50
2023-02-18T17:41:13.579Z,0.63
2023-02-18T17:43:41.700Z,0.70
2023-02-18T17:46:13.774Z,1.75
2023-02-18T17:48:42.286Z,0.60
2023-02-18T17:51:19.187Z,0.60
2023-02-18T17:53:47.082Z,0.30
2023-02-18T17:56:14.980Z,0.90
2023-02-18T17:58:42.809Z,1.20
2023-02-18T18:01:12.013Z,1.75
2023-02-18T18:03:39.943Z,1.67
2023-02-18T18:06:15.316Z,3.58
2023-02-18T18:08:43.254Z,2.15
2023-02-18T18:11:14.501Z,1.48
2023-02-18T18:13:42.304Z,0.90
2023-02-18T18:16:13.288Z,0.80
2023-02-18T18:18:41.214Z,0.88
2023-02-18T18:21:17.802Z,1.45
2023-02-18T18:23:45.653Z,3.40
2023-02-18T18:26:13.489Z,1.55
2023-02-18T18:28:41.311Z,1.05
2023-02-18T18:31:17.888Z,1.42
2023-02-18T18:33:48.765Z,1.15
2023-02-18T18:36:16.916Z,2.53
2023-02-18T18:38:44.750Z,1.15
2023-02-18T18:41:15.011Z,5.25
2023-02-18T18:43:42.891Z,3.03
2023-02-18T18:46:10.889Z,1.17
2023-02-18T18:48:40.194Z,2.17
2023-02-18T18:51:08.259Z,1.15
2023-02-18T18:53:36.737Z,0.88
2023-02-18T18:56:07.103Z,1.83
2023-02-18T18:58:35.020Z,1.02
2023-02-18T19:01:05.023Z,0.98
2023-02-18T19:03:35.371Z,1.83
2023-02-18T19:06:04.798Z,2.45
2023-02-18T19:08:33.379Z,0.47
2023-02-18T19:11:02.701Z,0.63
2023-02-18T19:13:32.896Z,0.60
2023-02-18T19:16:03.905Z,3.28
2023-02-18T19:18:33.561Z,0.90
2023-02-18T19:21:03.459Z,1.58
2023-02-18T19:23:32.873Z,0.73
2023-02-18T19:26:01.029Z,2.15
2023-02-18T19:28:29.351Z,2.53
2023-02-18T19:30:57.422Z,1.23
2023-02-18T19:33:25.345Z,2.83
2023-02-18T19:35:53.208Z,3.58
2023-02-18T19:38:21.169Z,0.98
2023-02-18T19:40:50.403Z,1.83
2023-02-18T19:43:18.221Z,3.30
2023-02-18T19:45:48.095Z,3.10
2023-02-18T19:48:16.782Z,1.50
2023-02-18T19:50:45.270Z,1.13
2023-02-18T19:53:13.295Z,2.05
2023-02-18T19:55:41.092Z,0.98
2023-02-18T19:58:10.523Z,0.57
2023-02-18T20:00:40.408Z,4.43
2023-02-18T20:03:08.211Z,1.17
2023-02-18T20:05:39.207Z,1.85
2023-02-18T20:08:07.024Z,1.77
2023-02-18T20:10:35.136Z,3.72
2023-02-18T20:13:04.519Z,1.02
2023-02-18T20:15:33.743Z,1.08
2023-02-18T20:18:01.631Z,1.08
2023-02-18T20:20:29.546Z,2.53
2023-02-18T20:22:57.331Z,1.48
2023-02-18T20:25:26.649Z,1.67
2023-02-18T20:28:00.962Z,1.48
2023-02-18T20:30:29.493Z,0.93
2023-02-18T20:32:58.709Z,1.20
2023-02-18T20:35:26.781Z,1.52
2023-02-18T20:37:54.561Z,0.98
2023-02-18T20:40:22.604Z,0.90
2023-02-18T20:42:50.556Z,1.08
2023-02-18T20:45:19.268Z,0.77
2023-02-18T20:47:47.116Z,0.80
2023-02-18T20:50:17.666Z,1.23
2023-02-18T20:52:45.467Z,0.95
2023-02-18T20:55:13.247Z,0.80
2023-02-18T20:57:41.056Z,0.70
2023-02-18T21:00:10.044Z,1.10
2023-02-18T21:02:37.829Z,1.02
2023-02-18T21:05:06.512Z,0.40
2023-02-18T21:07:35.713Z,1.27
2023-02-18T21:10:04.598Z,1.17
2023-02-18T21:12:32.400Z,1.33
2023-02-18T21:15:00.199Z,0.98
2023-02-18T21:17:27.976Z,2.00
2023-02-18T21:19:55.756Z,1.58
2023-02-18T21:22:23.544Z,2.88
2023-02-18T21:24:53.441Z,1.90
2023-02-18T21:27:21.248Z,1.35
2023-02-18T21:29:49.039Z,2.15
2023-02-18T21:32:16.966Z,0.77
2023-02-18T21:34:44.813Z,2.60
2023-02-18T21:37:12.703Z,3.42
2023-02-18T21:39:40.455Z,2.70
2023-02-18T21:42:10.574Z,1.50
2023-02-18T21:44:42.835Z,2.28
2023-02-18T21:47:12.082Z,1.92
2023-02-18T21:49:39.995Z,6.15
2023-02-18T21:52:13.787Z,2.17
2023-02-18T21:54:44.499Z,1.98
2023-02-18T21:57:15.593Z,3.25
2023-02-18T21:59:45.155Z,2.25
2023-02-18T22:02:17.759Z,4.05
2023-02-18T22:04:46.042Z,4.25
2023-02-18T22:07:14.175Z,2.88
2023-02-18T22:09:42.062Z,1.58
2023-02-18T22:12:11.754Z,2.22
2023-02-18T22:14:42.665Z,4.63
2023-02-18T22:17:10.765Z,5.97
2023-02-18T22:19:38.545Z,3.60
2023-02-18T22:22:06.698Z,3.40
2023-02-18T22:24:34.952Z,4.00
2023-02-18T22:27:03.225Z,6.25
2023-02-18T22:29:32.169Z,2.08
2023-02-18T22:32:01.393Z,2.08
2023-02-18T22:34:29.446Z,4.78
2023-02-18T22:36:57.230Z,3.95
2023-02-18T22:39:26.329Z,3.88
2023-02-18T22:41:54.129Z,3.13
2023-02-18T22:44:22.990Z,2.95
2023-02-18T22:46:51.380Z,1.50
2023-02-18T22:49:20.586Z,3.42
2023-02-18T22:51:52.677Z,3.08
2023-02-18T22:54:21.767Z,2.65
2023-02-18T22:56:49.747Z,4.72
2023-02-18T22:59:19.195Z,2.97
2023-02-18T23:01:49.730Z,4.22
2023-02-18T23:04:20.748Z,2.53
2023-02-18T23:06:49.031Z,3.92
2023-02-18T23:09:20.253Z,3.42
2023-02-18T23:11:51.116Z,2.50
2023-02-18T23:14:19.017Z,3.15
2023-02-18T23:17:05.133Z,1.80
2023-02-18T23:19:35.603Z,2.40
2023-02-18T23:22:03.389Z,5.30
2023-02-18T23:24:33.782Z,6.95
2023-02-18T23:27:01.622Z,3.28
2023-02-18T23:29:29.380Z,2.63
2023-02-18T23:31:57.335Z,5.15
2023-02-18T23:34:25.238Z,1.83
2023-02-18T23:36:54.380Z,2.92
2023-02-18T23:39:23.547Z,2.33
2023-02-18T23:41:52.202Z,2.72
2023-02-18T23:44:22.417Z,3.70
2023-02-18T23:46:50.566Z,2.25
2023-02-18T23:49:22.000Z,3.40
2023-02-18T23:51:50.071Z,4.78
2023-02-18T23:54:19.654Z,3.78
2023-02-18T23:56:47.882Z,4.03
2023-02-18T23:59:15.724Z,1.40
